Latest Weather Observations for Bulman

IDD60801

Issued at 9:01 am CST Monday 20 November 2017 (issued every 30 minutes, with the page automatically refreshed every 10 minutes)

About weather observations | Map of weather stations | Latest weather observations for NT | Other Formats
Station Details ID: 014627 Name: BULMAN Lat: -13.67 Lon: 134.34 Height: 103.4 m
Data from the previous 72 hours. | See also: Recent months at Bulman
Date/Time
CST
Temp
°C
App
Temp
°C
Dew
Point
°C
Rel
Hum
%
Delta-T
°C
Wind Press
QNH
hPa
Press
MSL
hPa
Rain since
9am
mm
Dir  Spd
km/h
Gust
km/h
Spd
kts
Gust
kts
20/09:00am 30.4 34.4 22.8 64 5.2 N 6 9 3 5 1011.2 1010.4 0.0
20/08:30am 28.4 32.7 23.3 74 3.5 N 6 7 3 4 1011.3 1010.5 0.0
20/08:00am 27.4 32.4 23.2 78 2.9 NNW 2 6 1 3 1011.0 1010.2 0.0
20/07:30am 26.3 31.7 23.2 83 2.1 CALM 0 0 0 0 1010.6 1009.8 0.0
20/07:00am 25.7 30.3 23.2 86 1.7 SSW 4 6 2 3 1010.3 1009.5 0.0
20/06:30am 24.2 29.6 23.3 95 0.6 CALM 0 0 0 0 1009.7 1008.9 0.0
20/06:00am 23.5 28.5 22.5 94 0.7 CALM 0 0 0 0 1009.7 1008.9 0.0
20/05:30am 23.4 28.3 22.4 94 0.7 CALM 0 0 0 0 1009.3 1008.5 0.0
20/05:00am 23.5 28.5 22.5 94 0.7 CALM 0 0 0 0 1008.7 1007.9 0.0
20/04:30am 23.7 28.5 22.1 91 1.1 CALM 0 0 0 0 1008.4 1007.5 0.0
20/04:00am 23.8 28.5 21.9 89 1.3 CALM 0 0 0 0 1008.3 1007.4 0.0
20/03:30am 24.0 28.5 21.5 86 1.7 CALM 0 0 0 0 1008.5 1007.7 0.0
20/03:00am 24.0 28.9 22.3 90 1.1 CALM 0 0 0 0 1008.7 1007.9 0.0
20/02:30am 24.2 29.3 22.6 91 1.1 CALM 0 0 0 0 1008.9 1008.1 0.0
20/02:00am 24.4 29.5 22.7 90 1.1 CALM 0 0 0 0 1009.1 1008.3 0.0
20/01:30am 24.5 29.7 22.8 90 1.2 CALM 0 0 0 0 1009.4 1008.6 0.0
20/01:00am 24.7 29.9 22.8 89 1.3 CALM 0 0 0 0 1009.6 1008.8 0.0
20/12:30am 24.8 29.8 22.5 87 1.6 CALM 0 0 0 0 1009.9 1009.1 0.0
20/12:00am 25.3 29.8 21.6 80 2.5 CALM 0 0 0 0 1010.4 1009.6 0.0
 
Date/Time
CST
Temp
°C
App
Temp
°C
Dew
Point
°C
Rel
Hum
%
Delta-T
°C
Wind Press
QNH
hPa
Press
MSL
hPa
Rain since
9am
mm
Dir  Spd
km/h
Gust
km/h
Spd
kts
Gust
kts
19/11:30pm 25.8 29.3 21.9 79 2.6 NNW 6 7 3 4 1010.6 1009.8 0.0
19/11:00pm 26.0 29.2 21.7 77 2.9 NNW 7 9 4 5 1010.7 1009.9 0.0
19/10:30pm 26.3 29.4 21.5 75 3.2 NNW 7 13 4 7 1010.6 1009.8 0.0
19/10:00pm 26.7 29.5 21.5 73 3.5 NNW 9 13 5 7 1010.4 1009.6 0.0
19/09:30pm 26.9 29.7 21.6 72 3.6 NNW 9 13 5 7 1009.9 1009.1 0.0
19/09:00pm 27.0 29.9 21.7 73 3.6 N 9 13 5 7 1009.5 1008.7 0.0
19/08:30pm 27.1 29.0 21.4 71 3.8 N 13 20 7 11 1009.0 1008.2 0.0
19/08:00pm 27.9 28.6 20.5 64 4.9 NNE 17 30 9 16 1009.0 1008.2 0.0
19/07:30pm 30.7 32.2 21.2 57 6.4 NNE 15 32 8 17 1007.9 1007.0 0.0
19/07:00pm 31.7 35.2 21.8 55 6.7 N 6 7 3 4 1006.4 1005.5 0.0
19/06:30pm 32.5 35.1 20.4 49 8.1 ENE 7 9 4 5 1006.2 1005.4 0.0
19/06:00pm 34.0 35.4 20.4 45 9.1 ENE 13 24 7 13 1005.8 1005.0 0.0
19/05:30pm 36.3 37.0 17.0 32 12.5 NNE 9 15 5 8 1005.0 1004.2 0.0
19/05:00pm 36.9 38.0 17.0 31 12.9 ENE 7 9 4 5 1004.8 1004.0 0.0
19/04:30pm 37.3 38.7 17.8 31 12.8 N 7 13 4 7 1004.8 1004.0 0.0
19/04:00pm 37.0 37.9 17.6 32 12.6 NNE 9 19 5 10 1005.3 1004.5 0.0
19/03:30pm 37.0 38.5 18.1 33 12.4 N 7 11 4 6 1005.8 1005.0 0.0
19/03:00pm 37.0 39.0 19.9 36 11.5 NNE 9 15 5 8 1006.2 1005.4 0.0
19/02:30pm 35.9 37.0 18.0 34 11.7 N 9 17 5 9 1006.6 1005.7 0.0
19/02:00pm 36.6 37.6 18.6 34 11.9 NE 11 19 6 10 1006.8 1005.9 0.0
19/01:30pm 36.8 39.1 21.4 41 10.6 NNE 11 22 6 12 1007.3 1006.4 0.0
19/01:00pm 36.3 37.4 19.7 37 11.1 NE 13 24 7 13 1007.9 1007.0 0.0
19/12:30pm 36.1 38.1 21.5 42 10.0 NE 13 20 7 11 1008.4 1007.5 0.0
19/12:00pm 35.4 37.1 20.1 40 10.3 N 11 20 6 11 1008.8 1008.0 0.0
19/11:30am 34.4 37.7 21.8 48 8.6 NNE 7 13 4 7 1009.3 1008.5 0.0
19/11:00am 33.8 37.7 22.9 53 7.5 N 7 15 4 8 1009.7 1008.9 0.0
19/10:30am 32.9 36.9 23.8 58 6.4 NNW 9 15 5 8 1009.9 1009.1 0.0
19/10:00am 32.1 35.8 23.3 59 6.1 N 9 15 5 8 1010.1 1009.3 0.0
19/09:30am 30.7 35.0 23.6 66 4.9 NNW 7 11 4 6 1010.2 1009.4 0.0
19/09:00am 29.7 33.8 23.9 71 4.0 NW 9 13 5 7 1010.4 1009.6 2.2
19/08:30am 29.1 33.8 24.9 78 3.0 NW 9 13 5 7 1010.5 1009.7 2.0
19/08:00am 27.7 32.2 23.9 80 2.6 NW 7 9 4 5 1010.6 1009.8 2.0
19/07:30am 26.9 32.4 23.4 81 2.4 CALM 0 0 0 0 1010.2 1009.4 2.0
19/07:00am 26.0 31.8 24.0 89 1.4 CALM 0 0 0 0 1009.8 1009.0 2.0
19/06:30am 24.3 29.8 23.4 95 0.6 CALM 0 0 0 0 1009.4 1008.6 2.0
19/06:00am 23.7 28.8 22.7 94 0.7 CALM 0 0 0 0 1009.0 1008.2 2.0
19/05:30am 23.8 29.0 22.8 94 0.7 CALM 0 0 0 0 1008.8 1008.0 2.0
19/05:00am 24.0 29.2 22.8 93 0.8 CALM 0 0 0 0 1008.7 1007.9 2.0
19/04:30am 24.0 29.1 22.6 92 0.9 CALM 0 0 0 0 1008.6 1007.8 2.0
19/04:00am 24.3 28.9 23.1 93 0.8 N 4 6 2 3 1008.6 1007.8 2.0
19/03:30am 24.4 29.8 23.2 93 0.8 CALM 0 0 0 0 1008.5 1007.7 2.0
19/03:00am 24.5 29.3 22.9 91 1.1 N 2 6 1 3 1008.4 1007.5 2.0
19/02:30am 24.4 28.4 22.8 91 1.1 N 6 6 3 3 1008.5 1007.7 2.0
19/02:00am 24.7 28.7 22.8 89 1.3 NNW 6 9 3 5 1008.8 1008.0 2.0
19/01:30am 24.6 28.6 22.7 89 1.3 NNW 6 7 3 4 1009.0 1008.2 2.0
19/01:00am 24.7 28.6 22.6 88 1.4 NNW 6 9 3 5 1009.1 1008.3 2.0
19/12:30am 25.0 29.0 22.7 87 1.6 NNW 6 7 3 4 1009.5 1008.7 2.0
19/12:00am 25.2 30.4 22.9 87 1.6 CALM 0 6 0 3 1009.6 1008.8 2.0
 
Date/Time
CST
Temp
°C
App
Temp
°C
Dew
Point
°C
Rel
Hum
%
Delta-T
°C
Wind Press
QNH
hPa
Press
MSL
hPa
Rain since
9am
mm
Dir  Spd
km/h
Gust
km/h
Spd
kts
Gust
kts
18/11:30pm 25.4 29.1 22.5 84 2.0 N 7 9 4 5 1009.8 1009.0 2.0
18/11:00pm 25.4 29.5 22.9 86 1.7 NNW 6 6 3 3 1009.8 1009.0 2.0
18/10:30pm 25.8 30.1 22.7 83 2.1 NNW 4 6 2 3 1009.8 1009.0 2.0
18/10:00pm 26.0 30.0 23.1 84 2.0 NNW 7 9 4 5 1009.9 1009.1 2.0
18/09:30pm 26.3 31.8 23.4 84 2.0 CALM 0 0 0 0 1009.5 1008.7 2.0
18/09:00pm 26.7 31.1 22.8 79 2.7 N 4 7 2 4 1009.0 1008.2 2.0
18/08:30pm 27.2 31.1 22.6 76 3.1 N 6 9 3 5 1009.0 1008.2 2.0
18/08:00pm 27.6 31.3 22.5 74 3.5 N 7 11 4 6 1008.6 1007.8 2.0
18/07:30pm 28.1 32.2 23.0 74 3.5 NNW 6 9 3 5 1008.1 1007.2 2.0
18/07:00pm 28.6 32.6 23.1 72 3.8 N 7 9 4 5 1008.0 1007.1 2.0
18/06:30pm 29.0 32.1 22.2 66 4.6 N 9 13 5 7 1007.6 1006.7 2.0
18/06:00pm 29.4 33.4 23.8 72 3.9 NNE 9 15 5 8 1007.3 1006.4 2.0
18/05:30pm 28.5 33.5 23.9 76 3.2 N 4 9 2 5 1007.2 1006.3 2.0
18/05:00pm 26.9 31.7 24.2 85 1.9 N 6 7 3 4 1006.9 1006.0 2.0
18/04:30pm 26.2 32.2 24.2 89 1.4 CALM 0 0 0 0 1007.0 1006.1 2.0
18/04:00pm 25.4 28.1 22.9 86 1.7 SSE 13 20 7 11 1007.9 1007.0 1.8
18/03:30pm 25.8 26.5 22.3 81 2.4 SE 22 33 12 18 1008.4 1007.5 0.8
18/03:23pm 27.1 27.3 22.1 74 3.4 SE 24 41 13 22 1008.2 1007.3 0.0
18/03:02pm 32.3 32.0 19.2 46 8.6 NE 19 52 10 28 1007.1 1006.2 0.0
18/03:00pm 34.7 35.1 19.9 42 9.9 NE 17 28 9 15 1006.8 1005.9 0.0
18/02:30pm 35.8 36.5 17.9 34 11.7 NE 11 19 6 10 1006.6 1005.7 0.0
18/02:00pm 36.1 37.7 19.1 36 11.3 NNE 9 19 5 10 1007.1 1006.2 0.0
18/01:30pm 35.8 37.5 20.1 40 10.6 NNE 11 20 6 11 1007.7 1006.8 0.0
18/01:00pm 34.3 36.1 19.5 41 9.8 ENE 9 20 5 11 1008.5 1007.7 0.0
18/12:30pm 33.8 36.4 21.2 47 8.5 NE 9 19 5 10 1009.2 1008.4 0.0
18/12:00pm 33.3 35.8 21.8 51 7.9 WNW 11 33 6 18 1009.7 1008.9 0.0
18/11:30am 32.8 35.6 21.6 51 7.6 NE 9 19 5 10 1010.1 1009.3 0.0
18/11:00am 32.1 36.0 22.5 57 6.6 N 6 7 3 4 1010.6 1009.8 0.0
18/10:30am 31.8 35.9 23.9 63 5.5 ESE 9 15 5 8 1010.8 1010.0 0.0
18/10:00am 31.4 35.9 24.0 65 5.2 NE 7 13 4 7 1011.0 1010.2 0.0
18/09:30am 30.0 34.2 23.2 67 4.7 E 6 9 3 5 1011.1 1010.3 0.0
18/09:00am 29.7 34.2 23.9 71 4.0 ENE 7 11 4 6 1011.1 1010.3 11.4
18/08:30am 28.8 33.6 23.5 73 3.7 E 4 7 2 4 1010.9 1010.1 11.2
18/08:00am 27.9 33.1 23.5 77 3.0 ENE 2 7 1 4 1010.7 1009.9 11.2
18/07:30am 27.1 32.0 23.6 81 2.4 S 4 7 2 4 1010.5 1009.7 11.2
18/07:00am 25.8 31.5 23.8 89 1.4 CALM 0 0 0 0 1010.1 1009.3 11.2
18/06:30am 24.6 29.9 23.7 95 0.6 WNW 2 7 1 4 1009.6 1008.8 11.2
18/06:00am 24.5 29.7 23.6 95 0.6 ESE 2 6 1 3 1009.0 1008.2 11.2
18/05:30am 24.7 30.4 23.8 95 0.6 CALM 0 0 0 0 1009.0 1008.2 11.2
18/05:00am 24.6 30.3 23.7 95 0.6 CALM 0 0 0 0 1008.8 1008.0 11.2
18/04:30am 24.6 30.3 23.7 95 0.6 CALM 0 0 0 0 1008.7 1007.9 11.2
18/04:00am 24.5 30.1 23.5 94 0.7 CALM 0 0 0 0 1008.5 1007.7 11.2
18/03:30am 24.6 30.1 23.4 93 0.8 CALM 0 0 0 0 1008.4 1007.5 11.2
18/03:00am 24.7 30.3 23.5 93 0.8 CALM 0 0 0 0 1008.4 1007.5 11.2
18/02:30am 24.7 30.3 23.5 93 0.8 CALM 0 0 0 0 1008.7 1007.9 11.2
18/02:00am 24.8 30.4 23.6 93 0.8 CALM 0 0 0 0 1009.0 1008.2 11.2
18/01:30am 24.8 30.4 23.6 93 0.8 CALM 0 0 0 0 1009.3 1008.5 11.2
18/01:00am 24.9 30.6 23.7 93 0.8 CALM 0 0 0 0 1009.4 1008.6 11.2
18/12:30am 24.8 30.4 23.6 93 0.8 CALM 0 0 0 0 1009.5 1008.7 11.2
18/12:00am 25.0 30.5 23.4 91 1.1 CALM 0 0 0 0 1009.8 1009.0 11.2
 
Date/Time
CST
Temp
°C
App
Temp
°C
Dew
Point
°C
Rel
Hum
%
Delta-T
°C
Wind Press
QNH
hPa
Press
MSL
hPa
Rain since
9am
mm
Dir  Spd
km/h
Gust
km/h
Spd
kts
Gust
kts
17/11:30pm 25.2 30.7 23.4 90 1.2 CALM 0 0 0 0 1010.2 1009.4 11.2
17/11:00pm 25.2 30.6 23.3 89 1.3 CALM 0 0 0 0 1010.5 1009.7 11.2
17/10:30pm 25.3 30.7 23.2 88 1.4 CALM 0 0 0 0 1010.7 1009.9 11.2
17/10:00pm 25.5 30.7 22.8 85 1.8 CALM 0 6 0 3 1010.4 1009.6 11.2
17/09:30pm 25.6 29.7 22.9 85 1.8 N 6 7 3 4 1010.1 1009.3 11.2
17/09:00pm 25.8 29.7 22.5 82 2.2 N 6 7 3 4 1009.9 1009.1 11.2
17/08:30pm 26.0 29.6 22.1 79 2.6 N 6 9 3 5 1009.8 1009.0 11.2
17/08:00pm 25.9 30.7 22.8 83 2.1 NNE 2 9 1 5 1009.6 1008.8 11.2
17/07:30pm 25.7 30.7 23.2 86 1.7 NNE 2 7 1 4 1009.5 1008.7 11.2
17/07:00pm 26.0 29.6 23.1 84 2.0 NNE 9 13 5 7 1008.8 1008.0 11.2
17/06:30pm 26.0 30.7 23.9 88 1.4 NE 6 9 3 5 1008.5 1007.7 11.2
17/06:00pm 26.1 30.8 24.0 88 1.5 N 6 9 3 5 1008.2 1007.3 11.2
17/05:30pm 25.8 30.3 24.0 90 1.2 SSE 7 11 4 6 1007.6 1006.7 11.2
17/05:00pm 24.9 29.4 23.7 93 0.8 SSW 6 9 3 5 1007.4 1006.5 11.2
17/04:30pm 24.0 26.9 23.1 95 0.6 S 13 19 7 10 1007.7 1006.8 10.4
17/04:00pm 26.9 28.2 22.3 76 3.1 SE 19 32 10 17 1007.7 1006.8 0.0
17/03:30pm 29.2 31.2 22.2 66 4.8 NNE 15 28 8 15 1006.6 1005.7 0.0
17/03:11pm 31.0 31.4 20.9 55 6.8 NE 20 35 11 19 1006.5 1005.6 0.0
17/03:00pm 36.1 38.9 20.8 41 10.4 NNE 7 15 4 8 1006.1 1005.3 0.0
17/02:30pm 35.7 37.3 19.2 38 11.0 ENE 9 17 5 9 1006.4 1005.5 0.0
17/02:00pm 35.9 39.0 22.1 44 9.5 NNE 9 20 5 11 1006.9 1006.0 0.0
17/01:30pm 35.2 38.1 21.1 43 9.6 N 7 11 4 6 1007.4 1006.5 0.0
17/01:00pm 33.9 36.5 22.0 49 8.1 N 11 15 6 8 1008.0 1007.1 0.0
17/12:30pm 34.1 36.9 21.5 47 8.6 NNE 9 15 5 8 1008.7 1007.9 0.0
17/12:00pm 33.7 36.6 21.8 49 8.1 NNE 9 17 5 9 1009.3 1008.5 0.0
17/11:30am 33.4 35.6 21.2 48 8.3 N 11 20 6 11 1009.8 1009.0 0.0
17/11:00am 32.3 36.6 24.3 62 5.6 N 9 13 5 7 1009.8 1009.0 0.0
17/10:30am 31.5 36.3 24.1 65 5.2 N 6 13 3 7 1010.4 1009.6 0.0
17/10:00am 30.8 35.9 24.7 70 4.3 NNW 6 13 3 7 1010.7 1009.9 0.0
17/09:30am 29.8 33.9 23.0 67 4.7 N 6 11 3 6 1010.8 1010.0 0.0

Other Formats:

Comma delimited format used in spreadsheet applications
http://www.bom.gov.au/fwo/IDD60801/IDD60801.94143.axf

JavaScript Object Notation format (JSON) in row-major order
http://www.bom.gov.au/fwo/IDD60801/IDD60801.94143.json